Time;durP1;ratioP1;P1;durP2;ratioP2;P2;SDS_P1;SDS_P2;PMS_P1;PMS_P2;Temp;Humidity;BMP_temperature;BMP_pressure;BME280_temperature;BME280_humidity;BME280_pressure;Samples;Min_cycle;Max_cycle;Signal;HPM_P1;HPM_P2
2022/12/05 00:02:24;;;;;;;16.10;9.65;;;7.00;87.20;;;;;;5074218;28;20071;-16
2022/12/05 00:04:50;;;;;;;16.70;9.70;;;7.10;87.30;;;;;;5073855;28;20024;-17
2022/12/05 00:07:16;;;;;;;9.95;6.80;;;7.10;87.30;;;;;;5074278;28;20020;-17
2022/12/05 00:09:42;;;;;;;16.40;9.70;;;7.10;87.30;;;;;;5074167;28;20047;-17
2022/12/05 00:12:08;;;;;;;11.05;7.07;;;7.20;87.20;;;;;;5055938;28;20028;-17
2022/12/05 00:14:34;;;;;;;15.20;9.35;;;7.20;87.00;;;;;;5073691;28;20049;-15
2022/12/05 00:17:00;;;;;;;13.88;8.13;;;7.20;87.00;;;;;;5073890;28;20025;-15
2022/12/05 00:19:25;;;;;;;10.15;6.40;;;7.20;87.00;;;;;;5073918;28;20028;-15
2022/12/05 00:21:51;;;;;;;11.07;7.30;;;7.30;87.00;;;;;;5074039;28;20032;-15
2022/12/05 00:24:18;;;;;;;13.77;8.60;;;7.30;87.00;;;;;;5073706;28;20433;-15
2022/12/05 00:26:44;;;;;;;10.95;7.25;;;7.30;86.90;;;;;;5073672;28;20028;-15
2022/12/05 00:29:11;;;;;;;11.05;6.93;;;7.40;86.90;;;;;;5055313;28;20086;-16
2022/12/05 00:31:37;;;;;;;11.73;7.22;;;7.40;86.80;;;;;;5073512;28;20035;-17
2022/12/05 00:34:03;;;;;;;12.25;8.05;;;7.40;86.70;;;;;;5073413;28;20426;-16
2022/12/05 00:36:32;;;;;;;12.45;7.93;;;7.40;86.60;;;;;;5073413;28;20074;-16
2022/12/05 00:39:00;;;;;;;15.55;9.55;;;7.40;86.50;;;;;;5073853;28;20025;-16
2022/12/05 00:41:28;;;;;;;12.90;8.43;;;7.40;86.40;;;;;;5073430;28;20021;-16
2022/12/05 00:43:57;;;;;;;15.73;8.65;;;7.40;86.50;;;;;;5072726;28;20035;-14
2022/12/05 00:46:25;;;;;;;19.38;10.35;;;7.40;86.50;;;;;;5073136;28;20369;-16
2022/12/05 00:48:56;;;;;;;21.58;11.27;;;7.40;86.50;;;;;;5073242;28;20115;-15
2022/12/05 00:51:28;;;;;;;19.92;12.50;;;7.50;86.60;;;;;;5073186;28;20188;-15
2022/12/05 00:53:58;;;;;;;18.95;11.77;;;7.40;86.60;;;;;;5073160;28;20040;-15
2022/12/05 00:56:26;;;;;;;17.88;11.80;;;7.50;86.60;;;;;;5073205;28;20036;-16
2022/12/05 00:58:55;;;;;;;16.75;11.70;;;7.50;86.50;;;;;;5072883;28;20107;-16
2022/12/05 01:01:22;;;;;;;19.10;11.60;;;7.50;86.50;;;;;;5073026;28;20104;-15
2022/12/05 01:03:51;;;;;;;19.35;12.50;;;7.50;86.50;;;;;;5072898;28;20032;-15
2022/12/05 01:06:17;;;;;;;15.52;10.00;;;7.50;86.50;;;;;;5072941;28;20032;-15
2022/12/05 01:08:43;;;;;;;21.38;12.45;;;7.50;86.50;;;;;;5073309;28;20044;-16
2022/12/05 01:11:13;;;;;;;18.38;12.77;;;7.50;86.60;;;;;;5072619;28;20540;-17
2022/12/05 01:13:39;;;;;;;21.60;12.65;;;7.50;86.70;;;;;;5072809;28;20070;-14
2022/12/05 01:16:05;;;;;;;21.35;13.45;;;7.50;86.70;;;;;;5072889;28;20394;-16
2022/12/05 01:18:31;;;;;;;23.15;14.52;;;7.60;86.70;;;;;;5072922;28;20468;-17
2022/12/05 01:20:57;;;;;;;22.30;13.85;;;7.60;86.70;;;;;;5072554;28;20073;-17
2022/12/05 01:23:24;;;;;;;22.58;13.13;;;7.60;86.70;;;;;;5073312;28;20020;-16
2022/12/05 01:25:51;;;;;;;20.80;13.40;;;7.60;86.80;;;;;;5072651;28;20025;-15
2022/12/05 01:28:17;;;;;;;21.30;14.55;;;7.60;86.80;;;;;;5054700;28;20028;-16
2022/12/05 01:30:46;;;;;;;20.77;13.73;;;7.60;86.90;;;;;;5072678;28;20330;-17
2022/12/05 01:33:12;;;;;;;23.08;14.13;;;7.60;87.00;;;;;;5072951;28;20032;-15
2022/12/05 01:35:40;;;;;;;24.65;14.30;;;7.60;87.00;;;;;;5072987;28;20035;-16
2022/12/05 01:38:07;;;;;;;24.23;13.93;;;7.70;87.10;;;;;;5072864;28;20055;-15
2022/12/05 01:40:35;;;;;;;22.80;12.55;;;7.70;87.10;;;;;;5072770;28;20032;-15
2022/12/05 01:43:02;;;;;;;18.58;10.02;;;7.70;87.40;;;;;;5072379;28;20495;-15
2022/12/05 01:45:40;;;;;;;20.13;11.55;;;7.80;87.40;;;;;;5073265;28;20125;-16
2022/12/05 01:48:13;;;;;;;16.25;10.07;;;7.80;87.50;;;;;;5072563;28;20024;-14
2022/12/05 01:50:39;;;;;;;17.23;10.93;;;7.80;87.60;;;;;;5072803;28;20032;-15
2022/12/05 01:53:05;;;;;;;23.08;12.98;;;7.90;87.80;;;;;;5072245;28;20028;-14
2022/12/05 01:55:33;;;;;;;22.88;13.35;;;7.90;87.80;;;;;;5054877;28;20028;-15
2022/12/05 01:58:01;;;;;;;22.88;13.25;;;7.90;87.70;;;;;;5076711;28;20016;-16
2022/12/05 02:00:26;;;;;;;25.70;14.23;;;7.90;87.60;;;;;;5058828;28;20051;-15
2022/12/05 02:02:57;;;;;;;24.88;14.10;;;7.90;87.60;;;;;;5076507;28;20110;-16
2022/12/05 02:05:32;;;;;;;23.50;14.68;;;7.90;87.50;;;;;;5076687;28;20033;-15
2022/12/05 02:08:01;;;;;;;22.95;13.23;;;7.90;87.50;;;;;;5076338;28;20074;-12
2022/12/05 02:10:32;;;;;;;21.52;13.35;;;7.90;87.60;;;;;;5076233;28;20039;-13
2022/12/05 02:13:15;;;;;;;23.52;13.68;;;7.90;87.70;;;;;;5076071;28;20078;-16
2022/12/05 02:15:56;;;;;;;24.15;14.10;;;8.00;87.80;;;;;;5075905;28;20064;-14
2022/12/05 02:18:49;;;;;;;26.52;14.98;;;7.90;87.80;;;;;;5076431;28;20035;-14
2022/12/05 02:21:36;;;;;;;26.80;15.30;;;7.90;88.60;;;;;;5076449;28;20036;-15
2022/12/05 02:24:20;;;;;;;23.98;14.10;;;7.90;89.10;;;;;;5076284;28;20043;-15
2022/12/05 02:27:02;;;;;;;29.00;14.80;;;7.90;89.20;;;;;;5076328;28;20070;-15
2022/12/05 02:30:16;;;;;;;24.63;13.45;;;7.90;89.50;;;;;;5075803;28;20048;-16
2022/12/05 02:33:03;;;;;;;23.52;12.18;;;7.90;89.80;;;;;;5044082;28;20147;-15
2022/12/05 02:36:01;;;;;;;24.90;13.23;;;7.90;89.80;;;;;;5076113;28;20054;-14
2022/12/05 02:38:32;;;;;;;21.63;12.20;;;8.00;90.10;;;;;;5075742;28;20554;-12
2022/12/05 02:41:06;;;;;;;22.77;12.20;;;7.90;90.10;;;;;;5075796;28;20024;-15
2022/12/05 02:43:44;;;;;;;;;;;8.00;90.10;;;;;;5076447;28;20542;-14
2022/12/05 02:46:18;;;;;;;18.80;10.43;;;8.00;90.30;;;;;;5075547;28;19911;-13
2022/12/05 02:48:46;;;;;;;19.10;11.27;;;8.00;90.30;;;;;;5075782;28;20025;-14
2022/12/05 02:51:16;;;;;;;19.95;10.13;;;8.10;90.40;;;;;;5075550;28;20562;-15
2022/12/05 02:53:44;;;;;;;20.80;11.35;;;8.10;90.40;;;;;;5057486;28;20020;-15
2022/12/05 02:56:11;;;;;;;17.23;10.10;;;8.10;90.40;;;;;;5075888;28;20025;-14
2022/12/05 02:58:44;;;;;;;19.27;9.50;;;8.10;90.30;;;;;;5057851;28;20055;-15
2022/12/05 03:01:10;;;;;;;19.27;9.65;;;8.10;90.20;;;;;;5075474;28;20025;-15
2022/12/05 03:03:36;;;;;;;17.63;9.90;;;8.10;90.10;;;;;;5075468;28;20031;-17
2022/12/05 03:06:13;;;;;;;16.73;8.82;;;8.20;89.90;;;;;;5075246;28;20029;-14
2022/12/05 03:08:52;;;;;;;15.00;8.35;;;8.20;89.80;;;;;;5074908;28;20138;-15
2022/12/05 03:11:18;;;;;;;14.95;8.07;;;8.20;89.70;;;;;;5075103;28;20483;-17
2022/12/05 03:13:48;;;;;;;17.40;9.25;;;8.30;89.70;;;;;;5075197;28;20104;-17
2022/12/05 03:16:21;;;;;;;17.40;9.45;;;8.30;89.90;;;;;;5075049;28;20033;-16
2022/12/05 03:18:54;;;;;;;16.98;9.98;;;8.30;90.00;;;;;;5075265;28;20070;-18
2022/12/05 03:21:32;;;;;;;19.02;9.90;;;8.30;89.90;;;;;;5075060;28;20036;-14
2022/12/05 03:24:08;;;;;;;14.27;7.28;;;8.30;90.00;;;;;;5075155;28;20370;-17
2022/12/05 03:26:50;;;;;;;16.38;8.45;;;8.30;89.90;;;;;;5074787;28;20048;-17
2022/12/05 03:30:02;;;;;;;16.42;7.70;;;8.30;89.80;;;;;;5074958;28;20570;-17
2022/12/05 03:32:59;;;;;;;13.75;7.65;;;8.40;89.70;;;;;;4973471;28;20142;-15
2022/12/05 03:35:41;;;;;;;17.05;9.40;;;8.40;89.60;;;;;;4969940;28;20113;-15
2022/12/05 03:38:13;;;;;;;16.10;9.07;;;8.50;89.60;;;;;;4974138;28;20101;-16
2022/12/05 03:40:46;;;;;;;17.67;8.82;;;8.50;89.50;;;;;;4973945;28;20034;-15
2022/12/05 03:43:39;;;;;;;13.27;8.25;;;8.50;89.30;;;;;;4973729;28;20065;-15
2022/12/05 03:46:15;;;;;;;17.58;9.00;;;8.50;89.20;;;;;;4973711;28;20031;-15
2022/12/05 03:49:08;;;;;;;20.08;8.80;;;8.50;89.20;;;;;;4973552;28;20039;-17
2022/12/05 03:51:39;;;;;;;14.77;8.80;;;8.50;89.10;;;;;;4973640;28;20050;-17
2022/12/05 03:54:15;;;;;;;15.60;7.75;;;8.50;89.10;;;;;;4973500;28;20043;-15
2022/12/05 03:56:48;;;;;;;15.50;8.38;;;8.40;89.00;;;;;;4973631;28;20027;-17
2022/12/05 04:00:01;;;;;;;14.70;7.57;;;8.40;89.10;;;;;;4973319;28;20131;-15
2022/12/05 04:02:34;;;;;;;12.98;7.47;;;8.40;89.10;;;;;;4935492;29;20028;-17
2022/12/05 04:05:09;;;;;;;12.93;7.65;;;8.40;89.10;;;;;;4935095;29;20036;-14
2022/12/05 04:07:39;;;;;;;14.65;7.88;;;8.40;89.10;;;;;;4934871;29;20114;-15
2022/12/05 04:10:22;;;;;;;16.05;7.70;;;8.50;89.20;;;;;;5030207;28;20091;-14
2022/12/05 04:12:50;;;;;;;10.40;6.35;;;8.50;89.20;;;;;;5032295;28;20060;-15
2022/12/05 04:15:23;;;;;;;13.15;7.20;;;8.50;89.30;;;;;;5031579;28;20050;-15
2022/12/05 04:17:59;;;;;;;12.73;7.05;;;8.50;89.30;;;;;;5032335;28;20584;-17
2022/12/05 04:23:25;;;;;;;12.15;7.47;;;8.60;89.20;;;;;;5032535;28;20132;-14
2022/12/05 04:26:22;;;;;;;12.50;7.05;;;8.60;89.20;;;;;;5031794;28;20022;-12
2022/12/05 04:29:01;;;;;;;12.18;6.72;;;8.60;89.30;;;;;;5016862;28;20026;-16
2022/12/05 04:31:34;;;;;;;14.32;6.68;;;8.70;89.30;;;;;;5031668;28;20120;-14
2022/12/05 04:34:04;;;;;;;13.77;6.78;;;8.70;89.20;;;;;;5031952;28;20029;-14
2022/12/05 04:36:44;;;;;;;12.40;7.10;;;8.70;89.20;;;;;;5053993;28;20495;-15
2022/12/05 04:39:28;;;;;;;10.95;5.93;;;8.70;89.30;;;;;;5073268;28;20563;-14
2022/12/05 04:41:59;;;;;;;12.75;6.15;;;8.70;89.30;;;;;;5073666;28;20032;-14
2022/12/05 04:44:33;;;;;;;11.35;5.75;;;8.70;89.50;;;;;;5073744;28;20021;-16
2022/12/05 04:47:02;;;;;;;13.10;7.00;;;8.70;89.60;;;;;;5073485;28;20043;-16
2022/12/05 04:49:31;;;;;;;11.07;6.60;;;8.80;89.70;;;;;;5073724;28;20044;-16
2022/12/05 04:52:02;;;;;;;11.68;6.70;;;8.70;89.70;;;;;;5073581;28;20020;-15
2022/12/05 04:54:33;;;;;;;11.07;6.15;;;8.80;89.80;;;;;;5073555;28;20036;-16
2022/12/05 04:57:09;;;;;;;10.40;5.78;;;8.80;89.80;;;;;;5073567;28;20095;-17
2022/12/05 04:59:35;;;;;;;10.48;6.68;;;8.80;89.80;;;;;;5055406;28;20028;-17
2022/12/05 05:02:07;;;;;;;10.85;6.43;;;8.80;89.80;;;;;;5073400;28;20033;-15
2022/12/05 05:04:46;;;;;;;11.70;5.68;;;8.80;89.90;;;;;;5073032;28;20405;-16
2022/12/05 05:07:13;;;;;;;8.13;4.68;;;8.80;89.90;;;;;;5073300;28;20265;-16
2022/12/05 05:09:43;;;;;;;9.07;5.00;;;8.80;89.90;;;;;;5073098;28;20476;-16
2022/12/05 05:12:10;;;;;;;10.48;5.20;;;8.90;89.80;;;;;;5073223;28;20104;-17
2022/12/05 05:14:36;;;;;;;8.98;5.32;;;8.90;89.80;;;;;;5072453;28;20159;-16
2022/12/05 05:17:03;;;;;;;9.02;5.20;;;8.90;89.80;;;;;;5072683;28;20028;-16
2022/12/05 05:19:29;;;;;;;11.77;5.57;;;9.00;89.80;;;;;;5073048;28;20020;-17
2022/12/05 05:21:56;;;;;;;8.75;5.50;;;8.90;89.70;;;;;;5072762;28;20085;-16
2022/12/05 05:24:22;;;;;;;8.75;5.13;;;9.00;89.70;;;;;;5073026;28;20028;-14
2022/12/05 05:26:48;;;;;;;7.35;4.53;;;9.00;89.70;;;;;;5072913;28;20051;-17
2022/12/05 05:29:15;;;;;;;7.70;4.60;;;9.00;89.70;;;;;;5072783;28;20488;-16
2022/12/05 05:31:41;;;;;;;9.68;5.18;;;9.00;89.70;;;;;;5072532;28;20020;-15
2022/12/05 05:34:08;;;;;;;7.82;4.30;;;9.10;89.60;;;;;;5072582;28;20440;-17
2022/12/05 05:36:35;;;;;;;7.32;4.22;;;9.10;89.60;;;;;;5072607;28;20035;-17
2022/12/05 05:39:03;;;;;;;9.70;5.40;;;9.10;89.60;;;;;;5072728;28;20025;-16
2022/12/05 05:41:31;;;;;;;7.85;4.60;;;9.20;89.50;;;;;;5073046;28;20072;-16
2022/12/05 05:43:58;;;;;;;21.70;8.73;;;9.20;89.50;;;;;;5072581;28;20044;-22
2022/12/05 05:46:28;;;;;;;15.73;7.50;;;9.20;89.40;;;;;;5072816;28;20028;-16
2022/12/05 05:48:54;;;;;;;9.43;5.68;;;9.20;89.40;;;;;;5072260;28;20107;-15
2022/12/05 05:51:22;;;;;;;11.20;6.20;;;9.20;89.30;;;;;;5164028;22;20060;-14
2022/12/05 05:53:48;;;;;;;12.38;7.47;;;9.20;89.20;;;;;;5092643;28;20035;-16
2022/12/05 05:56:18;;;;;;;13.68;7.57;;;9.20;89.10;;;;;;5092602;28;20020;-16
2022/12/05 05:58:45;;;;;;;12.13;7.13;;;9.10;89.00;;;;;;5092630;28;20020;-17
2022/12/05 06:01:15;;;;;;;12.68;7.35;;;9.00;89.10;;;;;;5092982;28;20054;-15
2022/12/05 06:03:41;;;;;;;15.25;7.57;;;9.00;89.10;;;;;;5092815;28;20099;-15
2022/12/05 06:06:10;;;;;;;10.55;6.43;;;9.00;89.20;;;;;;5176283;22;20087;-16
2022/12/05 06:08:39;;;;;;;8.98;5.38;;;9.00;89.20;;;;;;5072575;28;20021;-15
2022/12/05 06:11:14;;;;;;;9.60;5.78;;;9.00;89.20;;;;;;5072221;28;20097;-16
2022/12/05 06:13:40;;;;;;;11.98;6.63;;;9.00;89.30;;;;;;5072295;28;20025;-16
2022/12/05 06:16:11;;;;;;;13.15;7.40;;;9.10;89.40;;;;;;5175366;22;20413;-16
2022/12/05 06:18:37;;;;;;;14.73;8.45;;;9.20;89.30;;;;;;5092424;28;20074;-17
2022/12/05 06:21:10;;;;;;;13.50;8.35;;;9.10;89.20;;;;;;5092195;28;20027;-16
2022/12/05 06:23:37;;;;;;;13.52;8.00;;;9.10;89.20;;;;;;5092418;28;20026;-16
2022/12/05 06:26:05;;;;;;;15.25;8.38;;;9.00;89.10;;;;;;5092682;28;20111;-17
2022/12/05 06:28:31;;;;;;;13.18;7.88;;;9.00;89.10;;;;;;5092515;28;20021;-15
2022/12/05 06:30:57;;;;;;;14.70;9.40;;;9.00;89.20;;;;;;5147117;22;20459;-17
2022/12/05 06:33:23;;;;;;;14.90;10.00;;;9.00;89.20;;;;;;5092444;28;20060;-17
2022/12/05 06:36:01;;;;;;;16.40;9.48;;;9.00;89.30;;;;;;5092295;28;20111;-14
2022/12/05 06:38:27;;;;;;;17.80;11.15;;;9.10;89.20;;;;;;5092210;28;20056;-16
2022/12/05 06:40:53;;;;;;;15.98;9.73;;;9.00;89.20;;;;;;5091956;28;20085;-17
2022/12/05 06:43:19;;;;;;;18.27;10.85;;;9.00;89.20;;;;;;5093625;28;20470;-16
2022/12/05 06:45:45;;;;;;;17.08;10.25;;;9.00;89.20;;;;;;5096165;28;20028;-15
2022/12/05 06:48:11;;;;;;;16.73;10.80;;;9.00;89.20;;;;;;5095976;28;20395;-16
2022/12/05 06:50:36;;;;;;;16.60;10.40;;;9.00;89.20;;;;;;5096335;28;20063;-17
2022/12/05 06:53:02;;;;;;;14.43;8.55;;;9.00;89.20;;;;;;5095865;28;20052;-16
2022/12/05 06:55:28;;;;;;;14.50;9.23;;;9.00;89.20;;;;;;5096382;28;20332;-16
2022/12/05 06:57:54;;;;;;;16.30;8.57;;;9.00;89.30;;;;;;5163063;22;20057;-14
2022/12/05 07:03:05;;;;;;;14.82;10.20;;;9.00;89.20;;;;;;5055271;28;20071;-16
2022/12/05 07:05:31;;;;;;;13.75;8.18;;;9.10;89.20;;;;;;5055232;28;20025;-16
2022/12/05 07:07:57;;;;;;;15.38;9.90;;;9.10;89.20;;;;;;5055489;28;20095;-17
2022/12/05 07:10:23;;;;;;;12.75;8.25;;;9.00;89.20;;;;;;5055353;28;20492;-17
2022/12/05 07:12:49;;;;;;;11.82;6.40;;;9.00;89.30;;;;;;5054834;28;20033;-17
2022/12/05 07:15:15;;;;;;;14.02;7.40;;;9.10;89.30;;;;;;5055317;28;20099;-17
2022/12/05 07:17:41;;;;;;;12.80;6.25;;;9.10;89.40;;;;;;5055361;28;20025;-17
2022/12/05 07:20:09;;;;;;;12.50;6.97;;;9.10;89.40;;;;;;5054995;28;20380;-16
2022/12/05 07:22:36;;;;;;;9.18;5.60;;;9.10;89.40;;;;;;5054874;28;20033;-16
2022/12/05 07:25:03;;;;;;;11.10;6.35;;;9.10;89.30;;;;;;5054703;28;20498;-17
2022/12/05 07:27:29;;;;;;;10.07;5.70;;;9.10;89.30;;;;;;5054993;28;20021;-17
2022/12/05 07:29:55;;;;;;;10.55;5.85;;;9.10;89.30;;;;;;5054969;28;20104;-17
2022/12/05 07:32:21;;;;;;;10.98;6.28;;;9.10;89.30;;;;;;5055099;28;20057;-16
2022/12/05 07:34:47;;;;;;;8.40;4.72;;;9.10;89.30;;;;;;5054496;28;20451;-19
2022/12/05 07:37:13;;;;;;;8.95;5.45;;;9.10;89.30;;;;;;5054647;28;20032;-18
2022/12/05 07:39:39;;;;;;;12.77;6.72;;;9.00;89.20;;;;;;5054937;28;20029;-15
2022/12/05 07:42:04;;;;;;;10.32;6.45;;;9.00;89.20;;;;;;5054751;28;20366;-16
2022/12/05 07:44:31;;;;;;;9.25;5.70;;;8.90;89.20;;;;;;5036600;28;20482;-17
2022/12/05 07:46:57;;;;;;;7.90;5.35;;;8.90;89.20;;;;;;5054354;28;20025;-18
2022/12/05 07:49:23;;;;;;;9.43;5.93;;;9.00;89.30;;;;;;5054430;28;20067;-15
2022/12/05 07:51:49;;;;;;;12.20;7.07;;;9.10;89.40;;;;;;5054707;28;20094;-16
2022/12/05 07:54:15;;;;;;;13.25;8.30;;;9.20;89.50;;;;;;5054643;28;20415;-16
2022/12/05 07:56:41;;;;;;;11.52;7.95;;;9.30;89.50;;;;;;5054603;28;20116;-16
2022/12/05 07:59:07;;;;;;;12.20;7.43;;;9.30;89.50;;;;;;5053790;28;20429;-17
2022/12/05 08:01:33;;;;;;;9.40;6.85;;;9.40;89.50;;;;;;5054092;28;20025;-15
2022/12/05 08:03:59;;;;;;;16.98;9.95;;;9.50;89.40;;;;;;5054365;28;20330;-15
2022/12/05 08:06:28;;;;;;;15.10;8.98;;;9.60;89.40;;;;;;5054425;28;20025;-15
2022/12/05 08:08:55;;;;;;;15.40;9.23;;;9.60;89.40;;;;;;5054078;28;20115;-15
2022/12/05 08:11:24;;;;;;;14.25;8.95;;;9.70;89.40;;;;;;5054054;28;20028;-15
2022/12/05 08:13:50;;;;;;;19.75;14.10;;;9.80;89.40;;;;;;5054094;28;20434;-16
2022/12/05 08:16:19;;;;;;;19.70;11.32;;;9.80;89.30;;;;;;5054273;28;20033;-14
2022/12/05 08:18:45;;;;;;;13.07;7.88;;;9.90;89.20;;;;;;5054179;28;20021;-14
2022/12/05 08:21:18;;;;;;;15.32;9.18;;;10.00;89.20;;;;;;5053657;28;20384;-15
2022/12/05 08:23:45;;;;;;;13.10;9.05;;;10.10;89.10;;;;;;5054183;28;20028;-13
2022/12/05 08:26:20;;;;;;;16.58;9.13;;;10.20;89.10;;;;;;5053750;28;20544;-14
2022/12/05 08:28:51;;;;;;;11.73;7.75;;;10.30;89.10;;;;;;5053851;28;20032;-17
2022/12/05 08:31:19;;;;;;;12.07;8.15;;;10.30;89.00;;;;;;5053600;28;20024;-15
2022/12/05 08:33:45;;;;;;;12.23;7.72;;;10.40;89.00;;;;;;5053876;28;20033;-16
2022/12/05 08:36:14;;;;;;;11.75;7.53;;;10.40;88.90;;;;;;5054227;28;20039;-16
2022/12/05 08:38:41;;;;;;;12.07;7.15;;;10.40;88.90;;;;;;5053463;28;20021;-16
2022/12/05 08:41:09;;;;;;;8.88;6.32;;;10.40;88.90;;;;;;5053360;28;20037;-17
2022/12/05 08:43:36;;;;;;;9.55;6.28;;;10.50;88.90;;;;;;5053653;28;20025;-17
2022/12/05 08:46:02;;;;;;;11.52;6.60;;;10.50;88.90;;;;;;5053541;28;20054;-16
2022/12/05 08:48:31;;;;;;;13.05;8.10;;;10.70;89.00;;;;;;5053671;28;20390;-15
2022/12/05 08:50:57;;;;;;;11.82;8.00;;;10.70;88.80;;;;;;5053319;28;20427;-17
2022/12/05 08:53:24;;;;;;;10.07;6.80;;;10.70;88.80;;;;;;5053652;28;20392;-17
2022/12/05 08:55:51;;;;;;;10.10;7.07;;;10.80;88.60;;;;;;5053409;28;20045;-17
2022/12/05 08:58:17;;;;;;;12.43;7.47;;;10.80;88.60;;;;;;5052762;28;20151;-16
2022/12/05 09:00:43;;;;;;;12.85;6.70;;;10.90;88.90;;;;;;5184893;22;20134;-17
2022/12/05 09:03:11;;;;;;;12.77;8.05;;;11.10;88.70;;;;;;5113738;28;20063;-16
2022/12/05 09:05:37;;;;;;;11.85;7.57;;;11.20;88.70;;;;;;5113206;28;20489;-17
2022/12/05 09:08:04;;;;;;;9.82;6.35;;;11.20;88.60;;;;;;5113568;28;20039;-16
2022/12/05 09:10:30;;;;;;;14.07;7.30;;;11.30;88.60;;;;;;5113643;28;20028;-16
2022/12/05 09:12:56;;;;;;;9.50;6.10;;;11.40;88.40;;;;;;5113588;28;20355;-17
2022/12/05 09:15:22;;;;;;;9.73;6.50;;;11.40;88.30;;;;;;5113663;28;20531;-16
2022/12/05 09:17:48;;;;;;;8.07;5.70;;;11.50;88.30;;;;;;5113473;28;20413;-14
2022/12/05 09:20:14;;;;;;;9.68;5.50;;;11.60;88.20;;;;;;5112193;28;20027;-15
2022/12/05 09:22:40;;;;;;;8.30;4.90;;;11.70;88.20;;;;;;5113445;28;20066;-15
2022/12/05 09:25:07;;;;;;;8.75;5.38;;;11.80;88.20;;;;;;5113470;27;20035;-17
2022/12/05 09:27:33;;;;;;;7.65;5.18;;;11.80;87.00;;;;;;5113216;28;20028;-16
2022/12/05 09:30:00;;;;;;;8.10;4.82;;;11.80;87.30;;;;;;5113444;28;20039;-17
2022/12/05 09:32:26;;;;;;;7.90;4.63;;;11.80;86.30;;;;;;5113719;28;20038;-16
2022/12/05 09:34:53;;;;;;;7.15;4.10;;;11.90;87.10;;;;;;5112974;28;20024;-18
2022/12/05 09:37:19;;;;;;;7.00;4.97;;;11.90;86.80;;;;;;5113499;28;20024;-16
2022/12/05 09:39:45;;;;;;;6.90;4.28;;;11.90;86.30;;;;;;5113552;28;20355;-17
2022/12/05 09:42:29;;;;;;;7.07;4.82;;;12.10;86.90;;;;;;5113448;28;20156;-16
2022/12/05 09:45:00;;;;;;;7.07;5.00;;;12.20;87.10;;;;;;5112773;28;20439;-16
2022/12/05 09:47:50;;;;;;;8.70;4.65;;;12.30;86.60;;;;;;5113392;28;20034;-16
2022/12/05 09:50:29;;;;;;;8.25;4.97;;;12.30;86.10;;;;;;5113348;28;20039;-14
2022/12/05 09:53:11;;;;;;;6.80;4.30;;;12.30;85.50;;;;;;5113194;28;20031;-15
2022/12/05 09:56:08;;;;;;;8.05;4.90;;;12.30;84.50;;;;;;5112956;28;20028;-15
2022/12/05 09:58:43;;;;;;;8.82;4.60;;;12.30;84.80;;;;;;5013719;28;20095;-15
2022/12/05 10:01:21;;;;;;;9.20;4.97;;;12.20;83.50;;;;;;5029743;28;20528;-16
2022/12/05 10:04:16;;;;;;;7.32;4.68;;;12.20;84.10;;;;;;5031148;28;20033;-17
2022/12/05 10:07:09;;;;;;;5.70;3.90;;;12.30;84.80;;;;;;5030363;28;20107;-17
2022/12/05 10:09:53;;;;;;;5.53;3.83;;;12.40;85.20;;;;;;5030372;28;20145;-15
2022/12/05 10:12:42;;;;;;;5.72;3.63;;;12.50;85.40;;;;;;5030409;28;20030;-16
2022/12/05 10:15:20;;;;;;;5.55;3.67;;;12.70;84.70;;;;;;5029967;28;20029;-15
2022/12/05 10:17:52;;;;;;;6.93;4.00;;;12.70;83.50;;;;;;5031871;28;20060;-15
2022/12/05 10:20:34;;;;;;;8.82;4.78;;;12.80;81.60;;;;;;5034257;28;20033;-14
2022/12/05 10:23:05;;;;;;;5.15;3.72;;;12.80;82.10;;;;;;5033882;28;20042;-14
2022/12/05 10:25:33;;;;;;;5.55;3.53;;;12.80;81.60;;;;;;5034071;28;20128;-15
2022/12/05 10:28:12;;;;;;;5.55;3.75;;;12.90;81.20;;;;;;5033984;28;20095;-16
2022/12/05 10:30:40;;;;;;;7.97;4.25;;;12.90;81.70;;;;;;5034519;28;20473;-14
2022/12/05 10:33:21;;;;;;;6.95;4.50;;;13.00;81.70;;;;;;5017451;28;20976;-15
2022/12/05 10:35:52;;;;;;;6.55;4.72;;;13.00;81.60;;;;;;5101826;28;20135;-14
2022/12/05 10:38:30;;;;;;;5.93;4.22;;;13.10;81.30;;;;;;5116614;28;20103;-14
2022/12/05 10:41:04;;;;;;;6.50;4.03;;;13.10;81.00;;;;;;5116244;28;20024;-14
2022/12/05 10:43:32;;;;;;;5.60;3.65;;;13.10;81.10;;;;;;5116460;28;20035;-13
2022/12/05 10:46:00;;;;;;;6.20;3.95;;;13.00;80.10;;;;;;5116459;28;20550;-14
2022/12/05 10:48:30;;;;;;;7.43;4.00;;;12.90;79.70;;;;;;5115068;28;20066;-15
2022/12/05 10:50:58;;;;;;;5.88;4.00;;;12.80;79.70;;;;;;5116045;28;20031;-13
2022/12/05 10:53:31;;;;;;;5.10;3.90;;;12.80;79.90;;;;;;5116253;28;20035;-15
2022/12/05 10:55:57;;;;;;;6.50;4.30;;;12.90;80.60;;;;;;5116707;28;20038;-15
2022/12/05 10:58:29;;;;;;;6.03;4.10;;;12.90;80.30;;;;;;5116196;28;20262;-16
2022/12/05 11:01:07;;;;;;;5.50;4.00;;;13.00;81.00;;;;;;5115934;27;20056;-15
2022/12/05 11:03:37;;;;;;;8.00;4.20;;;13.10;80.80;;;;;;5116648;28;20519;-16
2022/12/05 11:06:16;;;;;;;6.53;4.40;;;13.30;80.30;;;;;;5116313;28;20023;-16
2022/12/05 11:08:50;;;;;;;6.20;4.40;;;13.40;80.60;;;;;;5116310;28;20022;-17
2022/12/05 11:11:24;;;;;;;7.22;5.07;;;13.40;80.70;;;;;;5116296;27;20165;-15
2022/12/05 11:13:55;;;;;;;6.38;4.00;;;13.50;80.20;;;;;;5116215;28;20033;-15
2022/12/05 11:16:39;;;;;;;6.85;4.40;;;13.60;79.30;;;;;;5115796;27;20027;-17
2022/12/05 11:19:29;;;;;;;6.85;4.00;;;13.60;79.40;;;;;;5115824;28;20417;-15
2022/12/05 11:21:55;;;;;;;5.78;3.83;;;13.50;79.60;;;;;;5116453;28;20505;-14
2022/12/05 11:24:34;;;;;;;3.47;2.70;;;13.50;79.50;;;;;;5115715;28;20051;-15
2022/12/05 11:27:24;;;;;;;4.40;2.80;;;13.50;79.10;;;;;;5115420;28;20027;-16
2022/12/05 11:30:14;;;;;;;7.28;3.20;;;13.40;78.40;;;;;;5115281;28;20107;-15
2022/12/05 11:32:39;;;;;;;5.00;3.40;;;13.40;79.20;;;;;;5115645;28;20127;-15
2022/12/05 11:35:11;;;;;;;3.88;2.80;;;13.30;79.40;;;;;;5115399;28;20046;-16
2022/12/05 11:37:49;;;;;;;4.05;2.78;;;13.40;79.30;;;;;;5114156;28;20070;-17
2022/12/05 11:40:24;;;;;;;3.33;2.70;;;13.40;78.30;;;;;;5115399;28;20047;-18
2022/12/05 11:43:11;;;;;;;5.07;3.17;;;13.40;78.40;;;;;;5113913;28;20390;-16
2022/12/05 11:46:03;;;;;;;3.47;2.83;;;13.30;78.50;;;;;;5115686;28;20101;-16
2022/12/05 11:48:59;;;;;;;4.35;3.28;;;13.40;78.80;;;;;;5115666;27;20506;-16
2022/12/05 11:51:44;;;;;;;4.90;3.20;;;13.40;79.30;;;;;;5115362;28;20055;-15
2022/12/05 11:54:25;;;;;;;3.90;3.13;;;13.40;79.00;;;;;;5115477;28;20031;-15
2022/12/05 11:56:58;;;;;;;6.55;3.88;;;13.50;78.50;;;;;;5114707;28;20028;-17
2022/12/05 11:59:47;;;;;;;5.60;3.20;;;13.40;78.20;;;;;;5115002;27;20085;-15
2022/12/05 12:02:29;;;;;;;4.63;3.13;;;13.30;78.80;;;;;;5114943;28;20106;-16
2022/12/05 12:05:07;;;;;;;4.85;3.22;;;13.10;78.90;;;;;;5114714;28;20038;-17
2022/12/05 12:07:57;;;;;;;3.45;2.97;;;13.00;78.60;;;;;;5114704;27;20114;-17
2022/12/05 12:10:41;;;;;;;4.22;2.75;;;12.90;79.00;;;;;;5114855;28;20117;-15
2022/12/05 12:13:46;;;;;;;3.95;2.90;;;12.90;79.70;;;;;;5114835;28;20092;-17
2022/12/05 12:16:27;;;;;;;4.70;3.20;;;12.90;80.20;;;;;;5186207;22;20052;-17
2022/12/05 12:19:14;;;;;;;7.28;4.28;;;12.90;80.60;;;;;;5093988;28;20077;-12
2022/12/05 12:22:01;;;;;;;5.65;4.15;;;12.90;80.80;;;;;;5094454;28;20020;-17
2022/12/05 12:24:42;;;;;;;4.68;3.47;;;12.90;80.90;;;;;;5094307;28;20110;-15
2022/12/05 12:27:15;;;;;;;5.93;4.10;;;12.90;80.90;;;;;;5115211;22;20053;-15
2022/12/05 12:29:59;;;;;;;4.93;3.42;;;12.90;81.40;;;;;;5073988;28;20032;-15
2022/12/05 12:32:44;;;;;;;;;;;12.80;81.40;;;;;;5074066;28;20033;-14
2022/12/05 12:35:39;;;;;;;4.18;3.13;;;12.90;81.30;;;;;;5073758;28;20363;-17
2022/12/05 12:38:31;;;;;;;4.75;3.17;;;12.90;81.30;;;;;;5073894;28;20029;-16
2022/12/05 12:41:26;;;;;;;6.43;4.15;;;12.90;81.50;;;;;;5072097;28;20031;-16
2022/12/05 12:44:19;;;;;;;5.50;4.05;;;12.90;81.50;;;;;;5073325;28;20029;-15
2022/12/05 12:47:03;;;;;;;6.03;3.80;;;12.90;80.90;;;;;;5073756;28;20052;-17
2022/12/05 12:49:41;;;;;;;5.38;3.97;;;12.90;81.00;;;;;;5073298;28;20020;-15
2022/12/05 12:52:16;;;;;;;5.25;3.58;;;12.80;81.00;;;;;;5073515;28;20078;-17
2022/12/05 12:55:09;;;;;;;6.35;3.67;;;12.80;80.80;;;;;;5073197;28;20021;-15
2022/12/05 12:57:55;;;;;;;5.23;3.53;;;12.70;81.00;;;;;;5179918;22;20048;-14
2022/12/05 13:00:46;;;;;;;5.00;3.17;;;12.70;79.90;;;;;;5053394;28;20312;-15
2022/12/05 13:03:21;;;;;;;5.13;3.10;;;12.90;81.20;;;;;;5053136;28;20025;-15
2022/12/05 13:05:59;;;;;;;4.20;2.70;;;13.00;80.00;;;;;;5053451;28;20101;-15
2022/12/05 13:08:49;;;;;;;3.85;2.72;;;13.10;79.60;;;;;;5053364;28;20029;-16
2022/12/05 13:11:17;;;;;;;5.80;3.65;;;13.20;80.00;;;;;;5052909;28;20427;-17
2022/12/05 13:13:47;;;;;;;4.75;3.45;;;13.20;79.50;;;;;;5053494;28;20103;-15
2022/12/05 13:16:29;;;;;;;5.43;3.78;;;13.10;79.30;;;;;;5052897;28;20044;-16
2022/12/05 13:18:56;;;;;;;4.95;3.33;;;13.00;78.80;;;;;;5052662;28;20025;-14
2022/12/05 13:21:23;;;;;;;6.53;3.53;;;13.00;79.00;;;;;;5052779;28;20115;-16